sensor_id;sensor_type;location;lat;lon;timestamp;P1;durP1;ratioP1;P2;durP2;ratioP2
52542;SDS011;38449;52.696;6.186;2022-09-09T00:00:19;9.05;;;7.57;;
52542;SDS011;38449;52.696;6.186;2022-09-09T00:08:11;8.98;;;7.00;;
52542;SDS011;38449;52.696;6.186;2022-09-09T00:10:50;9.57;;;6.50;;
52542;SDS011;38449;52.696;6.186;2022-09-09T00:16:13;16.35;;;7.07;;
52542;SDS011;38449;52.696;6.186;2022-09-09T00:21:38;10.40;;;7.28;;
52542;SDS011;38449;52.696;6.186;2022-09-09T00:24:14;10.25;;;7.93;;
52542;SDS011;38449;52.696;6.186;2022-09-09T00:26:45;8.70;;;7.80;;
52542;SDS011;38449;52.696;6.186;2022-09-09T00:29:35;10.98;;;7.57;;
52542;SDS011;38449;52.696;6.186;2022-09-09T00:32:24;10.48;;;7.55;;
52542;SDS011;38449;52.696;6.186;2022-09-09T00:35:16;12.18;;;8.68;;
52542;SDS011;38449;52.696;6.186;2022-09-09T00:37:43;10.30;;;7.63;;
52542;SDS011;38449;52.696;6.186;2022-09-09T00:40:22;10.20;;;8.13;;
52542;SDS011;38449;52.696;6.186;2022-09-09T00:43:06;10.18;;;7.80;;
52542;SDS011;38449;52.696;6.186;2022-09-09T00:46:14;9.95;;;7.40;;
52542;SDS011;38449;52.696;6.186;2022-09-09T00:49:04;11.40;;;8.20;;
52542;SDS011;38449;52.696;6.186;2022-09-09T00:57:26;11.60;;;7.65;;
52542;SDS011;38449;52.696;6.186;2022-09-09T01:08:02;10.60;;;7.43;;
52542;SDS011;38449;52.696;6.186;2022-09-09T01:10:49;8.07;;;6.40;;
52542;SDS011;38449;52.696;6.186;2022-09-09T01:13:26;11.80;;;7.22;;
52542;SDS011;38449;52.696;6.186;2022-09-09T01:15:56;11.27;;;7.88;;
52542;SDS011;38449;52.696;6.186;2022-09-09T01:18:28;12.43;;;7.65;;
52542;SDS011;38449;52.696;6.186;2022-09-09T01:26:56;11.32;;;6.65;;
52542;SDS011;38449;52.696;6.186;2022-09-09T01:29:25;14.05;;;6.18;;
52542;SDS011;38449;52.696;6.186;2022-09-09T01:34:22;9.32;;;5.90;;
52542;SDS011;38449;52.696;6.186;2022-09-09T01:37:10;8.05;;;5.55;;
52542;SDS011;38449;52.696;6.186;2022-09-09T01:39:37;8.45;;;6.35;;
52542;SDS011;38449;52.696;6.186;2022-09-09T01:42:05;8.15;;;5.78;;
52542;SDS011;38449;52.696;6.186;2022-09-09T01:44:34;10.75;;;6.32;;
52542;SDS011;38449;52.696;6.186;2022-09-09T01:47:00;9.23;;;6.47;;
52542;SDS011;38449;52.696;6.186;2022-09-09T01:49:26;8.45;;;6.20;;
52542;SDS011;38449;52.696;6.186;2022-09-09T01:51:53;8.93;;;5.88;;
52542;SDS011;38449;52.696;6.186;2022-09-09T01:54:20;10.90;;;6.35;;
52542;SDS011;38449;52.696;6.186;2022-09-09T02:02:23;12.02;;;6.28;;
52542;SDS011;38449;52.696;6.186;2022-09-09T02:05:30;9.32;;;5.97;;
52542;SDS011;38449;52.696;6.186;2022-09-09T02:08:20;8.32;;;5.65;;
52542;SDS011;38449;52.696;6.186;2022-09-09T02:13:36;9.20;;;5.88;;
52542;SDS011;38449;52.696;6.186;2022-09-09T02:16:13;8.00;;;5.93;;
52542;SDS011;38449;52.696;6.186;2022-09-09T02:21:21;11.20;;;6.43;;
52542;SDS011;38449;52.696;6.186;2022-09-09T02:23:48;8.00;;;5.82;;
52542;SDS011;38449;52.696;6.186;2022-09-09T02:26:17;11.15;;;6.50;;
52542;SDS011;38449;52.696;6.186;2022-09-09T02:28:45;10.25;;;6.32;;
52542;SDS011;38449;52.696;6.186;2022-09-09T02:31:12;11.57;;;6.45;;
52542;SDS011;38449;52.696;6.186;2022-09-09T02:33:41;9.38;;;5.97;;
52542;SDS011;38449;52.696;6.186;2022-09-09T02:36:10;8.35;;;6.05;;
52542;SDS011;38449;52.696;6.186;2022-09-09T02:38:42;10.00;;;6.30;;
52542;SDS011;38449;52.696;6.186;2022-09-09T02:41:15;10.73;;;6.10;;
52542;SDS011;38449;52.696;6.186;2022-09-09T02:43:43;8.35;;;6.13;;
52542;SDS011;38449;52.696;6.186;2022-09-09T02:57:01;8.93;;;5.25;;
52542;SDS011;38449;52.696;6.186;2022-09-09T02:59:31;8.30;;;5.70;;
52542;SDS011;38449;52.696;6.186;2022-09-09T03:01:57;7.97;;;5.65;;
52542;SDS011;38449;52.696;6.186;2022-09-09T03:04:22;8.15;;;5.07;;
52542;SDS011;38449;52.696;6.186;2022-09-09T03:06:50;7.88;;;5.15;;
52542;SDS011;38449;52.696;6.186;2022-09-09T03:09:15;7.95;;;5.18;;
52542;SDS011;38449;52.696;6.186;2022-09-09T03:11:42;8.90;;;5.43;;
52542;SDS011;38449;52.696;6.186;2022-09-09T03:14:07;8.32;;;5.38;;
52542;SDS011;38449;52.696;6.186;2022-09-09T03:16:33;7.68;;;5.32;;
52542;SDS011;38449;52.696;6.186;2022-09-09T03:19:00;7.75;;;4.95;;
52542;SDS011;38449;52.696;6.186;2022-09-09T03:21:26;8.57;;;5.47;;
52542;SDS011;38449;52.696;6.186;2022-09-09T03:23:51;8.18;;;4.55;;
52542;SDS011;38449;52.696;6.186;2022-09-09T03:26:17;6.68;;;4.80;;
52542;SDS011;38449;52.696;6.186;2022-09-09T03:28:43;7.32;;;5.40;;
52542;SDS011;38449;52.696;6.186;2022-09-09T03:31:10;8.35;;;5.38;;
52542;SDS011;38449;52.696;6.186;2022-09-09T03:33:39;8.10;;;5.22;;
52542;SDS011;38449;52.696;6.186;2022-09-09T03:36:06;9.93;;;5.57;;
52542;SDS011;38449;52.696;6.186;2022-09-09T03:38:33;8.20;;;4.93;;
52542;SDS011;38449;52.696;6.186;2022-09-09T03:40:59;11.15;;;5.45;;
52542;SDS011;38449;52.696;6.186;2022-09-09T03:43:26;8.35;;;5.40;;
52542;SDS011;38449;52.696;6.186;2022-09-09T03:45:53;9.63;;;5.22;;
52542;SDS011;38449;52.696;6.186;2022-09-09T03:48:22;7.18;;;5.20;;
52542;SDS011;38449;52.696;6.186;2022-09-09T03:50:49;9.35;;;5.60;;
52542;SDS011;38449;52.696;6.186;2022-09-09T03:53:16;7.97;;;5.75;;
52542;SDS011;38449;52.696;6.186;2022-09-09T03:55:48;8.10;;;5.75;;
52542;SDS011;38449;52.696;6.186;2022-09-09T03:58:17;7.43;;;5.53;;
52542;SDS011;38449;52.696;6.186;2022-09-09T04:03:43;7.65;;;5.70;;
52542;SDS011;38449;52.696;6.186;2022-09-09T04:06:10;8.52;;;5.60;;
52542;SDS011;38449;52.696;6.186;2022-09-09T04:08:38;7.43;;;5.65;;
52542;SDS011;38449;52.696;6.186;2022-09-09T04:11:04;7.07;;;5.80;;
52542;SDS011;38449;52.696;6.186;2022-09-09T04:13:31;9.45;;;5.90;;
52542;SDS011;38449;52.696;6.186;2022-09-09T04:15:59;6.57;;;5.47;;
52542;SDS011;38449;52.696;6.186;2022-09-09T04:18:25;6.90;;;5.35;;
52542;SDS011;38449;52.696;6.186;2022-09-09T04:20:53;8.38;;;5.88;;
52542;SDS011;38449;52.696;6.186;2022-09-09T04:23:19;7.20;;;5.72;;
52542;SDS011;38449;52.696;6.186;2022-09-09T04:25:45;8.95;;;5.75;;
52542;SDS011;38449;52.696;6.186;2022-09-09T04:28:13;7.25;;;5.93;;
52542;SDS011;38449;52.696;6.186;2022-09-09T04:30:43;7.07;;;5.90;;
52542;SDS011;38449;52.696;6.186;2022-09-09T04:33:09;10.15;;;6.20;;
52542;SDS011;38449;52.696;6.186;2022-09-09T04:35:36;8.73;;;6.25;;
52542;SDS011;38449;52.696;6.186;2022-09-09T04:38:03;10.02;;;6.90;;
52542;SDS011;38449;52.696;6.186;2022-09-09T04:40:30;11.43;;;6.95;;
52542;SDS011;38449;52.696;6.186;2022-09-09T04:42:59;10.73;;;7.78;;
52542;SDS011;38449;52.696;6.186;2022-09-09T04:45:25;10.25;;;8.80;;
52542;SDS011;38449;52.696;6.186;2022-09-09T04:47:52;11.02;;;8.20;;
52542;SDS011;38449;52.696;6.186;2022-09-09T04:50:19;9.55;;;7.75;;
52542;SDS011;38449;52.696;6.186;2022-09-09T04:52:45;11.73;;;8.95;;
52542;SDS011;38449;52.696;6.186;2022-09-09T04:55:10;12.43;;;8.45;;
52542;SDS011;38449;52.696;6.186;2022-09-09T04:57:37;11.43;;;9.02;;
52542;SDS011;38449;52.696;6.186;2022-09-09T05:00:04;11.52;;;8.57;;
52542;SDS011;38449;52.696;6.186;2022-09-09T05:02:30;11.70;;;9.13;;
52542;SDS011;38449;52.696;6.186;2022-09-09T05:04:57;13.35;;;9.70;;
52542;SDS011;38449;52.696;6.186;2022-09-09T05:07:23;16.20;;;9.93;;
52542;SDS011;38449;52.696;6.186;2022-09-09T05:09:50;12.63;;;9.35;;
52542;SDS011;38449;52.696;6.186;2022-09-09T05:12:15;13.88;;;10.18;;
52542;SDS011;38449;52.696;6.186;2022-09-09T05:14:42;10.45;;;8.40;;
52542;SDS011;38449;52.696;6.186;2022-09-09T05:17:08;11.85;;;10.02;;
52542;SDS011;38449;52.696;6.186;2022-09-09T05:19:34;13.27;;;9.98;;
52542;SDS011;38449;52.696;6.186;2022-09-09T05:22:00;13.43;;;9.63;;
52542;SDS011;38449;52.696;6.186;2022-09-09T05:24:26;12.73;;;9.60;;
52542;SDS011;38449;52.696;6.186;2022-09-09T05:26:52;12.23;;;9.60;;
52542;SDS011;38449;52.696;6.186;2022-09-09T05:29:17;12.95;;;9.45;;
52542;SDS011;38449;52.696;6.186;2022-09-09T05:31:46;10.55;;;8.65;;
52542;SDS011;38449;52.696;6.186;2022-09-09T05:34:12;11.95;;;8.95;;
52542;SDS011;38449;52.696;6.186;2022-09-09T05:36:38;11.35;;;8.88;;
52542;SDS011;38449;52.696;6.186;2022-09-09T05:39:03;11.15;;;8.43;;
52542;SDS011;38449;52.696;6.186;2022-09-09T05:41:29;9.40;;;8.18;;
52542;SDS011;38449;52.696;6.186;2022-09-09T05:43:56;9.65;;;7.28;;
52542;SDS011;38449;52.696;6.186;2022-09-09T05:46:22;9.23;;;7.68;;
52542;SDS011;38449;52.696;6.186;2022-09-09T05:48:50;8.93;;;7.53;;
52542;SDS011;38449;52.696;6.186;2022-09-09T05:51:19;11.95;;;7.57;;
52542;SDS011;38449;52.696;6.186;2022-09-09T05:53:47;9.75;;;7.60;;
52542;SDS011;38449;52.696;6.186;2022-09-09T05:56:20;11.25;;;8.43;;
52542;SDS011;38449;52.696;6.186;2022-09-09T05:58:49;11.52;;;7.60;;
52542;SDS011;38449;52.696;6.186;2022-09-09T06:01:16;14.02;;;7.30;;
52542;SDS011;38449;52.696;6.186;2022-09-09T06:03:53;11.48;;;7.53;;
52542;SDS011;38449;52.696;6.186;2022-09-09T06:06:20;9.50;;;7.20;;
52542;SDS011;38449;52.696;6.186;2022-09-09T06:08:48;9.75;;;7.43;;
52542;SDS011;38449;52.696;6.186;2022-09-09T06:11:17;8.38;;;7.15;;
52542;SDS011;38449;52.696;6.186;2022-09-09T06:13:45;10.07;;;7.53;;
52542;SDS011;38449;52.696;6.186;2022-09-09T06:16:14;9.15;;;7.35;;
52542;SDS011;38449;52.696;6.186;2022-09-09T06:18:41;8.70;;;7.15;;
52542;SDS011;38449;52.696;6.186;2022-09-09T06:21:14;10.65;;;6.90;;
52542;SDS011;38449;52.696;6.186;2022-09-09T06:23:45;10.80;;;7.15;;
52542;SDS011;38449;52.696;6.186;2022-09-09T06:28:45;7.65;;;6.85;;
52542;SDS011;38449;52.696;6.186;2022-09-09T06:31:13;10.73;;;7.22;;
52542;SDS011;38449;52.696;6.186;2022-09-09T06:33:42;10.00;;;7.40;;
52542;SDS011;38449;52.696;6.186;2022-09-09T06:36:13;11.23;;;6.55;;
52542;SDS011;38449;52.696;6.186;2022-09-09T06:38:40;20.48;;;8.15;;
52542;SDS011;38449;52.696;6.186;2022-09-09T06:41:09;8.30;;;6.10;;
52542;SDS011;38449;52.696;6.186;2022-09-09T06:43:36;8.45;;;6.20;;
52542;SDS011;38449;52.696;6.186;2022-09-09T06:46:03;7.32;;;5.72;;
52542;SDS011;38449;52.696;6.186;2022-09-09T06:48:31;9.15;;;5.53;;
52542;SDS011;38449;52.696;6.186;2022-09-09T06:51:16;8.73;;;5.78;;
52542;SDS011;38449;52.696;6.186;2022-09-09T06:53:44;7.57;;;5.13;;
52542;SDS011;38449;52.696;6.186;2022-09-09T06:58:40;8.20;;;5.85;;
52542;SDS011;38449;52.696;6.186;2022-09-09T07:01:11;9.70;;;5.78;;
52542;SDS011;38449;52.696;6.186;2022-09-09T07:03:48;8.63;;;5.55;;
52542;SDS011;38449;52.696;6.186;2022-09-09T07:06:19;8.55;;;5.38;;
52542;SDS011;38449;52.696;6.186;2022-09-09T07:08:50;8.85;;;5.55;;
52542;SDS011;38449;52.696;6.186;2022-09-09T07:11:18;8.68;;;5.28;;
52542;SDS011;38449;52.696;6.186;2022-09-09T07:13:45;8.13;;;5.20;;
52542;SDS011;38449;52.696;6.186;2022-09-09T07:16:13;9.20;;;5.10;;
52542;SDS011;38449;52.696;6.186;2022-09-09T07:18:43;8.55;;;4.70;;
52542;SDS011;38449;52.696;6.186;2022-09-09T07:21:10;8.80;;;4.95;;
52542;SDS011;38449;52.696;6.186;2022-09-09T07:23:37;9.57;;;5.03;;
52542;SDS011;38449;52.696;6.186;2022-09-09T07:26:13;9.23;;;4.97;;
52542;SDS011;38449;52.696;6.186;2022-09-09T07:28:40;9.05;;;5.03;;
52542;SDS011;38449;52.696;6.186;2022-09-09T07:31:08;7.72;;;4.57;;
52542;SDS011;38449;52.696;6.186;2022-09-09T07:33:40;11.37;;;4.80;;
52542;SDS011;38449;52.696;6.186;2022-09-09T07:36:07;10.15;;;5.10;;
52542;SDS011;38449;52.696;6.186;2022-09-09T07:38:38;9.00;;;4.93;;
52542;SDS011;38449;52.696;6.186;2022-09-09T07:41:15;10.68;;;4.75;;
52542;SDS011;38449;52.696;6.186;2022-09-09T07:43:43;7.47;;;4.75;;
52542;SDS011;38449;52.696;6.186;2022-09-09T07:46:10;8.27;;;4.60;;
52542;SDS011;38449;52.696;6.186;2022-09-09T07:48:44;10.23;;;5.38;;
52542;SDS011;38449;52.696;6.186;2022-09-09T07:51:11;8.93;;;5.20;;
52542;SDS011;38449;52.696;6.186;2022-09-09T07:53:44;7.57;;;5.10;;
52542;SDS011;38449;52.696;6.186;2022-09-09T07:56:10;11.38;;;4.70;;
52542;SDS011;38449;52.696;6.186;2022-09-09T07:58:38;8.98;;;4.55;;
52542;SDS011;38449;52.696;6.186;2022-09-09T08:03:35;7.88;;;4.93;;
52542;SDS011;38449;52.696;6.186;2022-09-09T08:06:02;9.13;;;4.45;;
52542;SDS011;38449;52.696;6.186;2022-09-09T08:08:33;8.77;;;4.35;;
52542;SDS011;38449;52.696;6.186;2022-09-09T08:11:06;8.77;;;4.13;;
52542;SDS011;38449;52.696;6.186;2022-09-09T08:13:35;8.15;;;4.45;;
52542;SDS011;38449;52.696;6.186;2022-09-09T08:16:20;8.25;;;4.22;;
52542;SDS011;38449;52.696;6.186;2022-09-09T08:18:50;10.60;;;4.22;;
52542;SDS011;38449;52.696;6.186;2022-09-09T08:21:18;7.50;;;3.85;;
52542;SDS011;38449;52.696;6.186;2022-09-09T08:23:49;8.32;;;4.10;;
52542;SDS011;38449;52.696;6.186;2022-09-09T08:26:24;9.38;;;4.18;;
52542;SDS011;38449;52.696;6.186;2022-09-09T08:29:00;9.23;;;3.92;;
52542;SDS011;38449;52.696;6.186;2022-09-09T08:31:29;7.55;;;3.97;;
52542;SDS011;38449;52.696;6.186;2022-09-09T08:33:57;9.23;;;3.97;;
52542;SDS011;38449;52.696;6.186;2022-09-09T08:36:28;9.20;;;4.03;;
52542;SDS011;38449;52.696;6.186;2022-09-09T08:38:56;10.50;;;3.80;;
52542;SDS011;38449;52.696;6.186;2022-09-09T08:51:48;11.40;;;3.30;;
52542;SDS011;38449;52.696;6.186;2022-09-09T08:54:15;8.10;;;3.45;;
52542;SDS011;38449;52.696;6.186;2022-09-09T08:56:42;7.53;;;3.45;;
52542;SDS011;38449;52.696;6.186;2022-09-09T08:59:09;10.07;;;3.50;;
52542;SDS011;38449;52.696;6.186;2022-09-09T09:01:54;7.55;;;3.33;;
52542;SDS011;38449;52.696;6.186;2022-09-09T09:10:25;10.38;;;3.80;;
52542;SDS011;38449;52.696;6.186;2022-09-09T09:13:04;6.95;;;3.67;;
52542;SDS011;38449;52.696;6.186;2022-09-09T09:15:41;8.45;;;3.20;;
52542;SDS011;38449;52.696;6.186;2022-09-09T09:18:10;9.13;;;2.67;;
52542;SDS011;38449;52.696;6.186;2022-09-09T09:20:50;7.72;;;2.72;;
52542;SDS011;38449;52.696;6.186;2022-09-09T09:23:32;6.40;;;2.80;;
52542;SDS011;38449;52.696;6.186;2022-09-09T09:26:05;11.07;;;3.05;;
52542;SDS011;38449;52.696;6.186;2022-09-09T09:28:34;11.90;;;3.13;;
52542;SDS011;38449;52.696;6.186;2022-09-09T09:31:09;8.75;;;2.65;;
52542;SDS011;38449;52.696;6.186;2022-09-09T09:36:15;5.57;;;2.35;;
52542;SDS011;38449;52.696;6.186;2022-09-09T09:38:52;6.95;;;2.92;;
52542;SDS011;38449;52.696;6.186;2022-09-09T09:41:36;7.35;;;2.45;;
52542;SDS011;38449;52.696;6.186;2022-09-09T09:44:18;9.52;;;2.97;;
52542;SDS011;38449;52.696;6.186;2022-09-09T09:46:49;9.60;;;2.58;;
52542;SDS011;38449;52.696;6.186;2022-09-09T09:49:15;8.55;;;2.30;;
52542;SDS011;38449;52.696;6.186;2022-09-09T09:51:42;9.07;;;2.80;;
52542;SDS011;38449;52.696;6.186;2022-09-09T09:56:41;8.82;;;2.92;;
52542;SDS011;38449;52.696;6.186;2022-09-09T10:01:52;7.75;;;2.30;;
52542;SDS011;38449;52.696;6.186;2022-09-09T10:04:19;7.03;;;2.78;;
52542;SDS011;38449;52.696;6.186;2022-09-09T10:06:48;8.55;;;2.50;;
52542;SDS011;38449;52.696;6.186;2022-09-09T10:09:22;8.30;;;2.83;;
52542;SDS011;38449;52.696;6.186;2022-09-09T10:12:03;8.07;;;2.55;;
52542;SDS011;38449;52.696;6.186;2022-09-09T10:18:08;8.73;;;2.75;;
52542;SDS011;38449;52.696;6.186;2022-09-09T10:26:46;11.07;;;2.60;;
52542;SDS011;38449;52.696;6.186;2022-09-09T10:34:49;8.02;;;2.50;;
52542;SDS011;38449;52.696;6.186;2022-09-09T10:37:35;9.27;;;2.47;;
52542;SDS011;38449;52.696;6.186;2022-09-09T10:43:23;10.95;;;2.25;;
52542;SDS011;38449;52.696;6.186;2022-09-09T10:57:20;5.85;;;1.90;;
52542;SDS011;38449;52.696;6.186;2022-09-09T11:01:06;7.88;;;2.33;;
52542;SDS011;38449;52.696;6.186;2022-09-09T11:03:05;7.72;;;2.40;;
52542;SDS011;38449;52.696;6.186;2022-09-09T11:05:42;6.78;;;2.38;;
52542;SDS011;38449;52.696;6.186;2022-09-09T11:13:57;7.55;;;2.40;;
52542;SDS011;38449;52.696;6.186;2022-09-09T11:17:02;10.35;;;2.45;;
52542;SDS011;38449;52.696;6.186;2022-09-09T11:19:38;6.85;;;2.15;;
52542;SDS011;38449;52.696;6.186;2022-09-09T11:22:21;7.00;;;2.33;;
52542;SDS011;38449;52.696;6.186;2022-09-09T11:24:57;7.10;;;2.25;;
52542;SDS011;38449;52.696;6.186;2022-09-09T11:27:41;7.38;;;2.08;;
52542;SDS011;38449;52.696;6.186;2022-09-09T11:30:23;7.80;;;1.92;;
52542;SDS011;38449;52.696;6.186;2022-09-09T11:33:16;7.95;;;2.05;;
52542;SDS011;38449;52.696;6.186;2022-09-09T11:38:59;6.10;;;1.83;;
52542;SDS011;38449;52.696;6.186;2022-09-09T11:41:36;6.82;;;1.70;;
52542;SDS011;38449;52.696;6.186;2022-09-09T11:44:09;5.68;;;2.00;;
52542;SDS011;38449;52.696;6.186;2022-09-09T11:46:37;7.53;;;2.13;;
52542;SDS011;38449;52.696;6.186;2022-09-09T11:49:21;10.70;;;2.40;;
52542;SDS011;38449;52.696;6.186;2022-09-09T11:51:53;9.68;;;2.25;;
52542;SDS011;38449;52.696;6.186;2022-09-09T11:57:04;7.10;;;2.10;;
52542;SDS011;38449;52.696;6.186;2022-09-09T11:59:49;7.72;;;2.08;;
52542;SDS011;38449;52.696;6.186;2022-09-09T12:02:23;5.18;;;1.80;;
52542;SDS011;38449;52.696;6.186;2022-09-09T12:07:30;9.27;;;2.00;;
52542;SDS011;38449;52.696;6.186;2022-09-09T12:13:08;6.63;;;1.92;;
52542;SDS011;38449;52.696;6.186;2022-09-09T12:15:46;3.05;;;1.27;;
52542;SDS011;38449;52.696;6.186;2022-09-09T12:18:37;7.80;;;1.73;;
52542;SDS011;38449;52.696;6.186;2022-09-09T12:23:55;5.93;;;1.88;;
52542;SDS011;38449;52.696;6.186;2022-09-09T12:29:12;5.30;;;1.92;;
52542;SDS011;38449;52.696;6.186;2022-09-09T12:34:13;4.78;;;1.80;;
52542;SDS011;38449;52.696;6.186;2022-09-09T12:36:42;8.35;;;1.98;;
52542;SDS011;38449;52.696;6.186;2022-09-09T12:39:16;4.63;;;1.55;;
52542;SDS011;38449;52.696;6.186;2022-09-09T12:41:58;6.22;;;1.75;;
52542;SDS011;38449;52.696;6.186;2022-09-09T12:44:24;7.18;;;1.88;;
52542;SDS011;38449;52.696;6.186;2022-09-09T12:46:53;8.98;;;2.30;;
52542;SDS011;38449;52.696;6.186;2022-09-09T12:49:26;7.20;;;2.40;;
52542;SDS011;38449;52.696;6.186;2022-09-09T12:51:53;7.65;;;2.33;;
52542;SDS011;38449;52.696;6.186;2022-09-09T12:54:22;6.47;;;2.10;;
52542;SDS011;38449;52.696;6.186;2022-09-09T12:56:48;6.95;;;2.40;;
52542;SDS011;38449;52.696;6.186;2022-09-09T12:59:34;5.75;;;2.00;;
52542;SDS011;38449;52.696;6.186;2022-09-09T13:02:02;5.07;;;1.77;;
52542;SDS011;38449;52.696;6.186;2022-09-09T13:04:36;6.18;;;2.35;;
52542;SDS011;38449;52.696;6.186;2022-09-09T13:07:05;8.05;;;2.22;;
52542;SDS011;38449;52.696;6.186;2022-09-09T13:09:34;7.30;;;2.33;;
52542;SDS011;38449;52.696;6.186;2022-09-09T13:12:00;7.80;;;2.60;;
52542;SDS011;38449;52.696;6.186;2022-09-09T13:14:34;8.68;;;2.50;;
52542;SDS011;38449;52.696;6.186;2022-09-09T13:17:03;8.10;;;2.22;;
52542;SDS011;38449;52.696;6.186;2022-09-09T13:19:35;6.00;;;2.20;;
52542;SDS011;38449;52.696;6.186;2022-09-09T13:22:12;6.15;;;2.00;;
52542;SDS011;38449;52.696;6.186;2022-09-09T13:24:43;6.07;;;2.10;;
52542;SDS011;38449;52.696;6.186;2022-09-09T13:29:53;4.63;;;2.63;;
52542;SDS011;38449;52.696;6.186;2022-09-09T13:32:20;5.82;;;2.33;;
52542;SDS011;38449;52.696;6.186;2022-09-09T13:34:57;7.40;;;2.08;;
52542;SDS011;38449;52.696;6.186;2022-09-09T13:40:00;4.95;;;1.90;;
52542;SDS011;38449;52.696;6.186;2022-09-09T13:42:28;6.40;;;2.00;;
52542;SDS011;38449;52.696;6.186;2022-09-09T13:44:56;5.53;;;2.03;;
52542;SDS011;38449;52.696;6.186;2022-09-09T13:47:29;3.90;;;1.73;;
52542;SDS011;38449;52.696;6.186;2022-09-09T13:52:58;5.13;;;1.40;;
52542;SDS011;38449;52.696;6.186;2022-09-09T13:55:27;4.75;;;1.40;;
52542;SDS011;38449;52.696;6.186;2022-09-09T13:58:01;3.70;;;1.20;;
52542;SDS011;38449;52.696;6.186;2022-09-09T14:00:30;3.17;;;1.67;;
52542;SDS011;38449;52.696;6.186;2022-09-09T14:02:58;3.42;;;1.40;;
52542;SDS011;38449;52.696;6.186;2022-09-09T14:05:27;3.90;;;1.50;;
52542;SDS011;38449;52.696;6.186;2022-09-09T14:07:54;5.07;;;1.58;;
52542;SDS011;38449;52.696;6.186;2022-09-09T14:10:20;3.97;;;1.50;;
52542;SDS011;38449;52.696;6.186;2022-09-09T14:12:47;4.22;;;1.40;;
52542;SDS011;38449;52.696;6.186;2022-09-09T14:15:12;6.90;;;1.73;;
52542;SDS011;38449;52.696;6.186;2022-09-09T14:17:39;4.45;;;1.40;;
52542;SDS011;38449;52.696;6.186;2022-09-09T14:20:05;3.80;;;1.40;;
52542;SDS011;38449;52.696;6.186;2022-09-09T14:22:34;4.22;;;1.35;;
52542;SDS011;38449;52.696;6.186;2022-09-09T14:25:01;4.35;;;1.67;;
52542;SDS011;38449;52.696;6.186;2022-09-09T14:27:28;4.40;;;1.33;;
52542;SDS011;38449;52.696;6.186;2022-09-09T14:29:55;2.65;;;1.20;;
52542;SDS011;38449;52.696;6.186;2022-09-09T14:32:21;4.82;;;1.42;;
52542;SDS011;38449;52.696;6.186;2022-09-09T14:34:47;5.13;;;1.50;;
52542;SDS011;38449;52.696;6.186;2022-09-09T14:37:14;5.68;;;1.50;;
52542;SDS011;38449;52.696;6.186;2022-09-09T14:39:41;3.33;;;1.70;;
52542;SDS011;38449;52.696;6.186;2022-09-09T14:42:09;4.32;;;1.60;;
52542;SDS011;38449;52.696;6.186;2022-09-09T14:44:36;4.85;;;1.55;;
52542;SDS011;38449;52.696;6.186;2022-09-09T14:47:03;3.33;;;1.48;;
52542;SDS011;38449;52.696;6.186;2022-09-09T14:49:33;4.05;;;1.65;;
52542;SDS011;38449;52.696;6.186;2022-09-09T14:51:59;3.78;;;1.40;;
52542;SDS011;38449;52.696;6.186;2022-09-09T14:54:25;4.32;;;1.60;;
52542;SDS011;38449;52.696;6.186;2022-09-09T14:56:51;5.45;;;1.52;;
52542;SDS011;38449;52.696;6.186;2022-09-09T14:59:18;4.18;;;1.65;;
52542;SDS011;38449;52.696;6.186;2022-09-09T15:01:44;5.22;;;1.67;;
52542;SDS011;38449;52.696;6.186;2022-09-09T15:04:10;5.22;;;2.05;;
52542;SDS011;38449;52.696;6.186;2022-09-09T15:06:37;4.28;;;1.75;;
52542;SDS011;38449;52.696;6.186;2022-09-09T15:09:04;4.07;;;1.75;;
52542;SDS011;38449;52.696;6.186;2022-09-09T15:11:31;2.95;;;1.60;;
52542;SDS011;38449;52.696;6.186;2022-09-09T15:14:03;4.65;;;1.77;;
52542;SDS011;38449;52.696;6.186;2022-09-09T15:16:29;3.50;;;1.30;;
52542;SDS011;38449;52.696;6.186;2022-09-09T15:18:57;5.97;;;1.67;;
52542;SDS011;38449;52.696;6.186;2022-09-09T15:21:25;5.10;;;1.45;;
52542;SDS011;38449;52.696;6.186;2022-09-09T15:23:52;4.78;;;1.60;;
52542;SDS011;38449;52.696;6.186;2022-09-09T15:26:19;6.15;;;1.90;;
52542;SDS011;38449;52.696;6.186;2022-09-09T15:28:46;3.75;;;1.73;;
52542;SDS011;38449;52.696;6.186;2022-09-09T15:31:17;3.28;;;1.52;;
52542;SDS011;38449;52.696;6.186;2022-09-09T15:33:51;2.85;;;1.50;;
52542;SDS011;38449;52.696;6.186;2022-09-09T15:36:19;3.80;;;1.50;;
52542;SDS011;38449;52.696;6.186;2022-09-09T15:38:50;4.18;;;1.50;;
52542;SDS011;38449;52.696;6.186;2022-09-09T15:41:16;3.47;;;1.80;;
52542;SDS011;38449;52.696;6.186;2022-09-09T15:43:53;4.18;;;1.70;;
52542;SDS011;38449;52.696;6.186;2022-09-09T15:46:24;4.35;;;1.60;;
52542;SDS011;38449;52.696;6.186;2022-09-09T15:48:58;5.13;;;1.85;;
52542;SDS011;38449;52.696;6.186;2022-09-09T15:51:36;3.75;;;1.90;;
52542;SDS011;38449;52.696;6.186;2022-09-09T15:54:03;3.92;;;1.85;;
52542;SDS011;38449;52.696;6.186;2022-09-09T15:56:30;3.42;;;1.70;;
52542;SDS011;38449;52.696;6.186;2022-09-09T15:58:56;5.03;;;1.90;;
52542;SDS011;38449;52.696;6.186;2022-09-09T16:01:24;4.45;;;1.88;;
52542;SDS011;38449;52.696;6.186;2022-09-09T16:03:50;4.72;;;2.00;;
52542;SDS011;38449;52.696;6.186;2022-09-09T16:06:17;3.20;;;1.63;;
52542;SDS011;38449;52.696;6.186;2022-09-09T16:08:47;3.70;;;2.13;;
52542;SDS011;38449;52.696;6.186;2022-09-09T16:14:12;4.55;;;2.08;;
52542;SDS011;38449;52.696;6.186;2022-09-09T16:16:40;4.68;;;1.92;;
52542;SDS011;38449;52.696;6.186;2022-09-09T16:19:08;2.70;;;1.50;;
52542;SDS011;38449;52.696;6.186;2022-09-09T16:21:38;5.18;;;1.65;;
52542;SDS011;38449;52.696;6.186;2022-09-09T16:24:06;4.80;;;1.92;;
52542;SDS011;38449;52.696;6.186;2022-09-09T16:26:35;4.53;;;1.90;;
52542;SDS011;38449;52.696;6.186;2022-09-09T16:29:02;3.20;;;1.60;;
52542;SDS011;38449;52.696;6.186;2022-09-09T16:31:29;5.50;;;1.70;;
52542;SDS011;38449;52.696;6.186;2022-09-09T16:33:57;4.85;;;1.73;;
52542;SDS011;38449;52.696;6.186;2022-09-09T16:36:24;4.60;;;1.90;;
52542;SDS011;38449;52.696;6.186;2022-09-09T16:38:55;4.68;;;1.90;;
52542;SDS011;38449;52.696;6.186;2022-09-09T16:41:22;4.82;;;1.90;;
52542;SDS011;38449;52.696;6.186;2022-09-09T16:43:55;5.30;;;1.58;;
52542;SDS011;38449;52.696;6.186;2022-09-09T16:46:26;4.05;;;1.83;;
52542;SDS011;38449;52.696;6.186;2022-09-09T16:48:53;6.63;;;1.83;;
52542;SDS011;38449;52.696;6.186;2022-09-09T16:51:21;5.38;;;1.75;;
52542;SDS011;38449;52.696;6.186;2022-09-09T16:53:49;4.35;;;1.90;;
52542;SDS011;38449;52.696;6.186;2022-09-09T16:56:16;5.55;;;1.77;;
52542;SDS011;38449;52.696;6.186;2022-09-09T16:58:44;3.50;;;1.40;;
52542;SDS011;38449;52.696;6.186;2022-09-09T17:01:20;4.25;;;1.83;;
52542;SDS011;38449;52.696;6.186;2022-09-09T17:03:46;5.20;;;1.50;;
52542;SDS011;38449;52.696;6.186;2022-09-09T17:06:12;3.95;;;1.75;;
52542;SDS011;38449;52.696;6.186;2022-09-09T17:08:39;5.15;;;1.70;;
52542;SDS011;38449;52.696;6.186;2022-09-09T17:11:16;3.95;;;1.50;;
52542;SDS011;38449;52.696;6.186;2022-09-09T17:13:44;6.68;;;2.10;;
52542;SDS011;38449;52.696;6.186;2022-09-09T17:16:11;4.20;;;1.55;;
52542;SDS011;38449;52.696;6.186;2022-09-09T17:18:38;8.02;;;1.95;;
52542;SDS011;38449;52.696;6.186;2022-09-09T17:21:05;5.53;;;2.03;;
52542;SDS011;38449;52.696;6.186;2022-09-09T17:23:36;3.35;;;1.67;;
52542;SDS011;38449;52.696;6.186;2022-09-09T17:26:03;8.10;;;1.98;;
52542;SDS011;38449;52.696;6.186;2022-09-09T17:28:34;4.43;;;2.03;;
52542;SDS011;38449;52.696;6.186;2022-09-09T17:31:02;5.45;;;1.98;;
52542;SDS011;38449;52.696;6.186;2022-09-09T17:33:29;5.45;;;2.00;;
52542;SDS011;38449;52.696;6.186;2022-09-09T17:35:59;5.45;;;2.17;;
52542;SDS011;38449;52.696;6.186;2022-09-09T17:38:33;4.85;;;1.80;;
52542;SDS011;38449;52.696;6.186;2022-09-09T17:41:07;6.20;;;2.17;;